createdAt,value
2018-05-12T00:02:22.920Z,14.20
2018-05-12T00:04:51.196Z,17.23
2018-05-12T00:07:19.493Z,13.90
2018-05-12T00:09:46.999Z,14.47
2018-05-12T00:12:14.492Z,14.83
2018-05-12T00:14:42.025Z,16.70
2018-05-12T00:17:09.503Z,15.53
2018-05-12T00:19:36.975Z,15.13
2018-05-12T00:22:04.512Z,15.23
2018-05-12T00:24:32.748Z,15.53
2018-05-12T00:27:00.324Z,15.27
2018-05-12T00:29:27.826Z,15.07
2018-05-12T00:31:55.338Z,14.63
2018-05-12T00:34:22.909Z,15.33
2018-05-12T00:36:51.166Z,15.40
2018-05-12T00:39:18.650Z,15.10
2018-05-12T00:41:46.900Z,15.63
2018-05-12T00:44:15.891Z,15.50
2018-05-12T00:46:43.453Z,14.57
2018-05-12T00:49:10.931Z,15.33
2018-05-12T00:51:39.245Z,13.63
2018-05-12T00:54:06.757Z,16.30
2018-05-12T00:56:34.309Z,14.60
2018-05-12T00:59:01.813Z,15.67
2018-05-12T01:01:29.311Z,14.40
2018-05-12T01:03:56.781Z,14.90
2018-05-12T01:06:24.264Z,14.17
2018-05-12T01:08:52.521Z,16.20
2018-05-12T01:11:20.071Z,14.20
2018-05-12T01:13:47.762Z,15.47
2018-05-12T01:16:15.250Z,15.07
2018-05-12T01:18:42.721Z,14.17
2018-05-12T01:21:10.214Z,15.63
2018-05-12T01:23:38.447Z,15.27
2018-05-12T01:26:05.932Z,16.33
2018-05-12T01:28:33.496Z,15.70
2018-05-12T01:31:01.113Z,16.77
2018-05-12T01:33:28.606Z,16.20
2018-05-12T01:35:56.184Z,16.23
2018-05-12T01:38:24.439Z,16.17
2018-05-12T01:40:52.006Z,16.03
2018-05-12T01:43:19.564Z,18.37
2018-05-12T01:45:47.132Z,16.03
2018-05-12T01:48:15.388Z,16.90
2018-05-12T01:50:42.855Z,16.97
2018-05-12T01:53:10.365Z,15.80
2018-05-12T01:55:37.838Z,15.20
2018-05-12T01:58:05.314Z,16.57
2018-05-12T02:00:32.800Z,16.20
2018-05-12T02:03:01.039Z,16.50
2018-05-12T02:05:28.523Z,16.23
2018-05-12T02:07:56.000Z,17.80
2018-05-12T02:10:24.264Z,16.93
2018-05-12T02:12:52.516Z,16.83
2018-05-12T02:15:19.997Z,16.50
2018-05-12T02:17:48.250Z,15.77
2018-05-12T02:20:15.720Z,17.17
2018-05-12T02:22:43.963Z,15.70
2018-05-12T02:25:11.443Z,18.00
2018-05-12T02:27:39.004Z,17.53
2018-05-12T02:30:06.474Z,15.87
2018-05-12T02:32:34.737Z,17.60
2018-05-12T02:35:02.199Z,17.23
2018-05-12T02:37:29.670Z,16.90
2018-05-12T02:39:57.908Z,14.90
2018-05-12T02:42:25.388Z,16.67
2018-05-12T02:44:53.651Z,17.10
2018-05-12T02:47:21.213Z,16.83
2018-05-12T02:49:48.692Z,14.93
2018-05-12T02:52:16.944Z,17.03
2018-05-12T02:54:44.509Z,17.90
2018-05-12T02:57:11.980Z,16.20
2018-05-12T02:59:40.395Z,16.60
2018-05-12T03:02:07.903Z,17.23
2018-05-12T03:04:36.147Z,17.80
2018-05-12T03:07:03.639Z,17.00
2018-05-12T03:09:31.191Z,16.87
2018-05-12T03:11:58.769Z,16.10
2018-05-12T03:14:27.028Z,17.03
2018-05-12T03:16:54.515Z,17.33
2018-05-12T03:19:21.994Z,15.90
2018-05-12T03:21:49.508Z,16.07
2018-05-12T03:24:17.058Z,16.77
2018-05-12T03:26:44.522Z,16.17
2018-05-12T03:29:11.995Z,17.53
2018-05-12T03:31:40.223Z,15.93
2018-05-12T03:34:07.706Z,16.77
2018-05-12T03:36:35.178Z,16.50
2018-05-12T03:39:03.410Z,16.00
2018-05-12T03:41:30.995Z,16.20
2018-05-12T03:43:58.476Z,17.77
2018-05-12T03:46:26.706Z,17.17
2018-05-12T03:48:54.288Z,15.93
2018-05-12T03:51:22.567Z,15.37
2018-05-12T03:53:50.853Z,16.47
2018-05-12T03:56:19.096Z,15.27
2018-05-12T03:58:46.676Z,16.07
2018-05-12T04:01:14.161Z,16.27
2018-05-12T04:03:41.640Z,17.17
2018-05-12T04:06:21.028Z,15.97
2018-05-12T04:09:01.330Z,17.23
2018-05-12T04:11:40.723Z,16.80
2018-05-12T04:14:08.242Z,14.87
2018-05-12T04:16:35.715Z,16.33
2018-05-12T04:19:03.290Z,16.50
2018-05-12T04:21:30.860Z,19.20
2018-05-12T04:23:59.107Z,18.33
2018-05-12T04:26:26.586Z,17.30
2018-05-12T04:28:54.814Z,17.30
2018-05-12T04:31:22.311Z,18.30
2018-05-12T04:33:49.820Z,18.13
2018-05-12T04:36:17.287Z,18.50
2018-05-12T04:38:44.759Z,18.17
2018-05-12T04:41:12.241Z,17.57
2018-05-12T04:43:39.810Z,19.87
2018-05-12T04:46:08.047Z,17.77
2018-05-12T04:48:35.518Z,18.53
2018-05-12T04:51:03.004Z,17.53
2018-05-12T04:53:31.227Z,18.10
2018-05-12T04:55:58.719Z,20.00
2018-05-12T04:58:26.291Z,20.10
2018-05-12T05:00:54.562Z,18.77
2018-05-12T05:03:22.799Z,21.00
2018-05-12T05:05:50.273Z,20.00
2018-05-12T05:08:17.760Z,21.60
2018-05-12T05:10:45.312Z,19.17
2018-05-12T05:13:13.577Z,23.20
2018-05-12T05:15:41.046Z,22.80
2018-05-12T05:18:09.312Z,22.70
2018-05-12T05:20:36.881Z,22.40
2018-05-12T05:23:05.120Z,23.13
2018-05-12T05:25:32.654Z,21.60
2018-05-12T05:28:00.126Z,21.83
2018-05-12T05:30:27.586Z,22.80
2018-05-12T05:32:55.068Z,21.80
2018-05-12T05:35:22.588Z,21.73
2018-05-12T05:37:50.093Z,23.60
2018-05-12T05:40:17.649Z,22.30
2018-05-12T05:42:45.172Z,21.87
2018-05-12T05:45:12.648Z,22.53
2018-05-12T05:47:40.212Z,20.50
2018-05-12T05:50:07.979Z,22.47
2018-05-12T05:52:35.445Z,21.57
2018-05-12T05:55:02.952Z,23.10
2018-05-12T05:57:30.418Z,23.80
2018-05-12T05:59:57.909Z,23.77
2018-05-12T06:02:25.393Z,23.47
2018-05-12T06:04:53.623Z,21.73
2018-05-12T06:07:21.108Z,22.77
2018-05-12T06:09:50.104Z,23.93
2018-05-12T06:12:17.670Z,23.47
2018-05-12T06:14:45.907Z,22.60
2018-05-12T06:17:13.391Z,23.17
2018-05-12T06:19:40.872Z,23.70
2018-05-12T06:22:08.407Z,23.40
2018-05-12T06:24:35.922Z,22.67
2018-05-12T06:27:03.428Z,22.13
2018-05-12T06:29:31.735Z,23.03
2018-05-12T06:31:59.931Z,24.23
2018-05-12T06:34:27.407Z,22.63
2018-05-12T06:36:54.994Z,22.90
2018-05-12T06:39:22.490Z,23.17
2018-05-12T06:41:49.951Z,23.80
2018-05-12T06:44:17.436Z,22.10
2018-05-12T06:46:45.010Z,24.20
2018-05-12T06:49:12.563Z,24.80
2018-05-12T06:51:40.037Z,24.47
2018-05-12T06:54:07.611Z,25.83
2018-05-12T06:56:35.843Z,22.93
2018-05-12T06:59:03.422Z,24.37
2018-05-12T07:01:30.982Z,23.77
2018-05-12T07:03:59.214Z,25.67
2018-05-12T07:06:26.737Z,25.50
2018-05-12T07:08:54.966Z,25.87
2018-05-12T07:11:22.441Z,25.00
2018-05-12T07:13:49.954Z,25.70
2018-05-12T07:16:17.422Z,26.53
2018-05-12T07:18:44.898Z,26.20
2018-05-12T07:21:12.355Z,26.27
2018-05-12T07:23:39.830Z,27.23
2018-05-12T07:26:07.407Z,28.37
2018-05-12T07:28:35.644Z,27.80
2018-05-12T07:31:03.122Z,26.30
2018-05-12T07:33:32.114Z,26.47
2018-05-12T07:35:59.600Z,25.97
2018-05-12T07:38:27.060Z,25.80
2018-05-12T07:40:54.539Z,25.73
2018-05-12T07:43:22.003Z,25.70
2018-05-12T07:45:49.482Z,26.30
2018-05-12T07:48:16.950Z,26.53
2018-05-12T07:50:44.430Z,26.80
2018-05-12T07:53:12.658Z,25.80
2018-05-12T07:55:40.235Z,26.10
2018-05-12T07:58:07.729Z,24.53
2018-05-12T08:00:35.970Z,25.90
2018-05-12T08:03:03.442Z,27.67
2018-05-12T08:05:32.500Z,26.50
2018-05-12T08:07:59.980Z,25.97
2018-05-12T08:10:28.224Z,24.27
2018-05-12T08:12:55.706Z,24.40
2018-05-12T08:15:23.268Z,23.77
2018-05-12T08:17:50.759Z,24.37
2018-05-12T08:20:19.017Z,24.77
2018-05-12T08:22:46.489Z,23.00
2018-05-12T08:25:14.722Z,26.13
2018-05-12T08:27:42.197Z,25.97
2018-05-12T08:30:09.669Z,26.87
2018-05-12T08:32:37.222Z,23.63
2018-05-12T08:35:04.813Z,23.50
2018-05-12T08:37:32.331Z,24.40
2018-05-12T08:39:59.809Z,21.87
2018-05-12T08:42:28.059Z,25.53
2018-05-12T08:44:55.612Z,21.57
2018-05-12T08:47:23.230Z,22.00
2018-05-12T08:49:50.707Z,23.60
2018-05-12T08:52:18.177Z,22.70
2018-05-12T08:54:45.652Z,22.63
2018-05-12T08:57:13.239Z,22.03
2018-05-12T08:59:41.487Z,18.73
2018-05-12T09:02:08.966Z,20.60
2018-05-12T09:04:37.232Z,21.00
2018-05-12T09:07:05.480Z,22.27
2018-05-12T09:09:32.941Z,20.63
2018-05-12T09:12:00.436Z,21.90
2018-05-12T09:14:28.668Z,18.53
2018-05-12T09:16:56.174Z,19.77
2018-05-12T09:19:24.494Z,21.37
2018-05-12T09:21:51.970Z,19.53
2018-05-12T09:24:19.523Z,19.10
2018-05-12T09:26:47.013Z,18.90
2018-05-12T09:29:15.330Z,21.27
2018-05-12T09:31:42.805Z,19.57
2018-05-12T09:34:10.316Z,19.20
2018-05-12T09:36:37.862Z,18.63
2018-05-12T09:39:06.114Z,17.00
2018-05-12T09:41:33.612Z,17.53
2018-05-12T09:44:01.246Z,16.57
2018-05-12T09:46:29.487Z,17.30
2018-05-12T09:48:56.965Z,16.10
2018-05-12T09:51:24.518Z,15.57
2018-05-12T09:53:51.997Z,16.17
2018-05-12T09:56:20.251Z,15.50
2018-05-12T09:58:47.824Z,17.60
2018-05-12T10:01:15.290Z,16.00
2018-05-12T10:03:43.522Z,14.23
2018-05-12T10:06:11.029Z,17.30
2018-05-12T10:08:39.367Z,16.40
2018-05-12T10:11:06.949Z,16.47
2018-05-12T10:13:34.455Z,15.13
2018-05-12T10:16:01.950Z,17.20
2018-05-12T10:18:29.555Z,15.17
2018-05-12T10:20:57.072Z,15.47
2018-05-12T10:23:24.549Z,14.93
2018-05-12T10:25:52.802Z,13.90
2018-05-12T10:28:20.364Z,14.17
2018-05-12T10:30:47.921Z,13.17
2018-05-12T10:33:15.440Z,13.97
2018-05-12T10:35:43.160Z,13.30
2018-05-12T10:38:11.397Z,13.13
2018-05-12T10:40:38.875Z,13.63
2018-05-12T10:43:06.330Z,14.70
2018-05-12T10:45:33.863Z,12.87
2018-05-12T10:48:01.375Z,12.97
2018-05-12T10:50:29.613Z,12.47
2018-05-12T10:52:57.235Z,13.50
2018-05-12T10:55:24.745Z,13.70
2018-05-12T10:57:52.295Z,12.13
2018-05-12T11:00:19.864Z,13.03
2018-05-12T11:02:47.324Z,12.00
2018-05-12T11:05:15.571Z,12.33
2018-05-12T11:07:43.043Z,12.70
2018-05-12T11:10:10.526Z,12.07
2018-05-12T11:12:38.757Z,11.77
2018-05-12T11:15:06.241Z,12.30
2018-05-12T11:17:33.727Z,12.43
2018-05-12T11:20:01.250Z,11.77
2018-05-12T11:22:28.741Z,12.37
2018-05-12T11:24:56.320Z,12.00
2018-05-12T11:27:23.791Z,12.30
2018-05-12T11:29:51.278Z,11.63
2018-05-12T11:32:20.262Z,10.53
2018-05-12T11:34:47.887Z,10.70
2018-05-12T11:37:15.390Z,11.30
2018-05-12T11:39:42.860Z,11.27
2018-05-12T11:42:11.113Z,12.20
2018-05-12T11:44:38.675Z,10.70
2018-05-12T11:47:06.089Z,10.97
2018-05-12T11:49:33.550Z,11.27
2018-05-12T11:52:01.107Z,10.23
2018-05-12T11:54:29.475Z,12.03
2018-05-12T11:56:56.987Z,9.80
2018-05-12T11:59:24.553Z,10.10
2018-05-12T12:01:52.102Z,10.03
2018-05-12T12:04:19.563Z,10.70
2018-05-12T12:06:47.122Z,11.40
2018-05-12T12:09:14.578Z,10.43
2018-05-12T12:11:42.043Z,12.13
2018-05-12T12:14:10.295Z,11.40
2018-05-12T12:16:37.787Z,11.20
2018-05-12T12:19:05.323Z,13.70
2018-05-12T12:21:32.787Z,11.90
2018-05-12T12:24:00.266Z,13.87
2018-05-12T12:26:28.506Z,12.20
2018-05-12T12:28:55.974Z,11.13
2018-05-12T12:31:23.437Z,11.00
2018-05-12T12:33:50.982Z,11.13
2018-05-12T12:36:18.446Z,13.50
2018-05-12T12:38:45.910Z,12.53
2018-05-12T12:41:14.147Z,11.80
2018-05-12T12:43:41.619Z,14.57
2018-05-12T12:46:09.103Z,12.47
2018-05-12T12:48:37.362Z,11.60
2018-05-12T12:51:04.853Z,11.07
2018-05-12T12:53:33.095Z,10.63
2018-05-12T12:56:00.648Z,11.23
2018-05-12T12:58:28.137Z,11.47
2018-05-12T13:00:56.359Z,11.60
2018-05-12T13:03:23.833Z,11.27
2018-05-12T13:05:51.397Z,11.57
2018-05-12T13:08:18.867Z,9.83
2018-05-12T13:10:46.429Z,10.83
2018-05-12T13:13:14.694Z,10.30
2018-05-12T13:15:42.249Z,11.10
2018-05-12T13:18:09.714Z,10.70
2018-05-12T13:20:37.180Z,11.23
2018-05-12T13:23:05.415Z,11.00
2018-05-12T13:25:32.904Z,10.40
2018-05-12T13:28:00.410Z,11.50
2018-05-12T13:30:28.600Z,10.90
2018-05-12T13:32:56.080Z,11.13
2018-05-12T13:35:23.638Z,10.53
2018-05-12T13:37:51.195Z,10.67
2018-05-12T13:40:18.740Z,11.60
2018-05-12T13:42:46.907Z,10.53
2018-05-12T13:45:14.383Z,10.63
2018-05-12T13:47:41.980Z,10.60
2018-05-12T13:50:10.228Z,10.30
2018-05-12T13:52:37.683Z,12.90
2018-05-12T13:55:05.240Z,10.20
2018-05-12T13:57:32.721Z,10.90
2018-05-12T14:00:00.975Z,10.40
2018-05-12T14:02:28.522Z,10.70
2018-05-12T14:04:56.101Z,10.37
2018-05-12T14:07:24.445Z,10.70
2018-05-12T14:09:51.858Z,10.17
2018-05-12T14:12:19.329Z,10.67
2018-05-12T14:14:46.795Z,9.80
2018-05-12T14:17:14.274Z,10.07
2018-05-12T14:19:41.742Z,9.63
2018-05-12T14:22:09.322Z,9.23
2018-05-12T14:24:37.595Z,8.67
2018-05-12T14:27:05.059Z,8.47
2018-05-12T14:29:33.287Z,9.70
2018-05-12T14:32:00.780Z,7.70
2018-05-12T14:34:28.249Z,8.90
2018-05-12T14:36:56.467Z,8.43
2018-05-12T14:39:23.961Z,8.83
2018-05-12T14:41:51.417Z,8.50
2018-05-12T14:44:18.879Z,9.33
2018-05-12T14:46:47.147Z,9.50
2018-05-12T14:49:14.650Z,9.90
2018-05-12T14:51:42.117Z,8.90
2018-05-12T14:54:09.618Z,8.80
2018-05-12T14:56:37.086Z,8.97
2018-05-12T14:59:04.633Z,8.70
2018-05-12T15:01:32.200Z,7.93
2018-05-12T15:03:59.654Z,8.60
2018-05-12T15:06:27.132Z,7.50
2018-05-12T15:08:55.345Z,8.40
2018-05-12T15:11:22.950Z,8.07
2018-05-12T15:13:50.401Z,7.93
2018-05-12T15:16:17.909Z,7.73
2018-05-12T15:18:45.363Z,6.93
2018-05-12T15:21:12.837Z,7.40
2018-05-12T15:23:40.327Z,7.57
2018-05-12T15:26:09.300Z,7.60
2018-05-12T15:28:36.775Z,8.73
2018-05-12T15:31:04.337Z,7.30
2018-05-12T15:33:32.603Z,7.20
2018-05-12T15:36:00.071Z,7.37
2018-05-12T15:38:28.112Z,7.50
2018-05-12T15:40:55.599Z,7.00
2018-05-12T15:43:23.819Z,7.73
2018-05-12T15:45:51.300Z,7.40
2018-05-12T15:48:18.784Z,7.03
2018-05-12T15:50:46.242Z,7.20
2018-05-12T15:53:13.702Z,7.10
2018-05-12T15:55:41.162Z,7.20
2018-05-12T15:58:09.418Z,7.07
2018-05-12T16:00:36.975Z,7.03
2018-05-12T16:03:04.475Z,6.33
2018-05-12T16:05:31.895Z,7.00
2018-05-12T16:07:59.461Z,7.63
2018-05-12T16:10:27.021Z,7.13
2018-05-12T16:12:54.580Z,7.50
2018-05-12T16:15:22.807Z,8.00
2018-05-12T16:17:50.399Z,6.93
2018-05-12T16:20:18.052Z,6.63
2018-05-12T16:22:45.531Z,6.83
2018-05-12T16:25:13.092Z,7.83
2018-05-12T16:27:40.650Z,8.73
2018-05-12T16:30:08.100Z,7.80
2018-05-12T16:32:35.654Z,8.80
2018-05-12T16:35:03.113Z,8.57
2018-05-12T16:37:30.669Z,8.97
2018-05-12T16:39:58.129Z,9.67
2018-05-12T16:42:25.707Z,8.13
2018-05-12T16:44:53.943Z,8.40
2018-05-12T16:47:21.432Z,7.93
2018-05-12T16:49:49.695Z,7.90
2018-05-12T16:52:17.169Z,9.27
2018-05-12T16:54:45.402Z,8.37
2018-05-12T16:57:12.864Z,9.70
2018-05-12T16:59:40.352Z,10.77
2018-05-12T17:02:07.914Z,9.07
2018-05-12T17:04:36.153Z,9.17
2018-05-12T17:07:03.643Z,8.90
2018-05-12T17:09:31.114Z,8.03
2018-05-12T17:11:59.357Z,8.50
2018-05-12T17:14:26.834Z,8.70
2018-05-12T17:16:55.112Z,9.97
2018-05-12T17:19:23.361Z,10.40
2018-05-12T17:21:50.856Z,8.83
2018-05-12T17:24:19.111Z,9.40
2018-05-12T17:26:46.663Z,8.80
2018-05-12T17:29:14.145Z,9.40
2018-05-12T17:31:42.453Z,9.37
2018-05-12T17:34:09.924Z,9.67
2018-05-12T17:36:37.425Z,9.40
2018-05-12T17:39:04.971Z,10.07
2018-05-12T17:41:32.527Z,9.83
2018-05-12T17:44:00.007Z,10.47
2018-05-12T17:46:28.247Z,8.87
2018-05-12T17:48:55.718Z,9.13
2018-05-12T17:51:23.189Z,8.90
2018-05-12T17:53:50.735Z,11.07
2018-05-12T17:56:18.207Z,9.53
2018-05-12T17:58:46.483Z,10.57
2018-05-12T18:01:14.025Z,10.53
2018-05-12T18:03:41.592Z,11.77
2018-05-12T18:06:09.100Z,9.30
2018-05-12T18:08:36.615Z,9.50
2018-05-12T18:11:04.858Z,10.50
2018-05-12T18:13:32.326Z,12.10
2018-05-12T18:15:59.788Z,11.47
2018-05-12T18:18:27.260Z,10.70
2018-05-12T18:20:54.819Z,10.50
2018-05-12T18:23:23.062Z,10.50
2018-05-12T18:25:50.552Z,10.50
2018-05-12T18:28:18.105Z,10.80
2018-05-12T18:30:45.656Z,11.60
2018-05-12T18:33:13.149Z,11.10
2018-05-12T18:35:40.624Z,10.23
2018-05-12T18:38:08.091Z,11.33
2018-05-12T18:40:35.589Z,10.53
2018-05-12T18:43:03.148Z,10.37
2018-05-12T18:45:30.619Z,11.57
2018-05-12T18:47:58.857Z,13.83
2018-05-12T18:50:26.440Z,14.87
2018-05-12T18:52:53.907Z,11.97
2018-05-12T18:55:22.158Z,12.53
2018-05-12T18:57:49.838Z,13.33
2018-05-12T19:00:17.395Z,11.50
2018-05-12T19:02:44.935Z,11.90
2018-05-12T19:05:12.503Z,12.63
2018-05-12T19:07:40.083Z,12.17
2018-05-12T19:10:08.343Z,15.20
2018-05-12T19:12:35.804Z,14.57
2018-05-12T19:15:03.272Z,16.47
2018-05-12T19:17:31.529Z,13.90
2018-05-12T19:19:59.003Z,15.50
2018-05-12T19:22:27.252Z,14.67
2018-05-12T19:24:54.807Z,12.60
2018-05-12T19:27:22.305Z,11.77
2018-05-12T19:29:50.538Z,13.40
2018-05-12T19:32:18.018Z,13.20
2018-05-12T19:34:46.266Z,12.57
2018-05-12T19:37:13.854Z,11.63
2018-05-12T19:39:41.327Z,12.57
2018-05-12T19:42:09.556Z,12.70
2018-05-12T19:44:37.131Z,12.50
2018-05-12T19:47:04.627Z,12.10
2018-05-12T19:49:32.924Z,12.40
2018-05-12T19:52:00.380Z,13.30
2018-05-12T19:54:27.855Z,12.30
2018-05-12T19:56:55.437Z,12.13
2018-05-12T19:59:23.607Z,11.83
2018-05-12T20:01:51.103Z,12.60
2018-05-12T20:04:19.341Z,12.97
2018-05-12T20:06:46.809Z,13.10
2018-05-12T20:09:14.360Z,11.70
2018-05-12T20:11:41.839Z,11.77
2018-05-12T20:14:10.087Z,12.27
2018-05-12T20:16:38.335Z,11.90
2018-05-12T20:19:05.796Z,12.03
2018-05-12T20:21:33.264Z,13.00
2018-05-12T20:24:00.731Z,12.50
2018-05-12T20:26:28.321Z,12.83
2018-05-12T20:28:56.543Z,12.77
2018-05-12T20:31:24.066Z,12.80
2018-05-12T20:33:51.527Z,12.40
2018-05-12T20:36:19.035Z,13.70
2018-05-12T20:38:46.509Z,14.60
2018-05-12T20:41:13.983Z,13.53
2018-05-12T20:43:42.220Z,14.70
2018-05-12T20:46:09.811Z,13.67
2018-05-12T20:48:38.039Z,14.30
2018-05-12T20:51:05.595Z,14.67
2018-05-12T20:53:33.086Z,14.47
2018-05-12T20:56:00.630Z,15.57
2018-05-12T20:58:28.201Z,14.33
2018-05-12T21:00:55.670Z,13.50
2018-05-12T21:03:23.924Z,13.13
2018-05-12T21:05:51.394Z,13.70
2018-05-12T21:08:18.866Z,13.50
2018-05-12T21:10:47.109Z,12.13
2018-05-12T21:13:14.572Z,12.60
2018-05-12T21:15:42.848Z,13.70
2018-05-12T21:18:10.344Z,12.73
2018-05-12T21:20:37.806Z,12.70
2018-05-12T21:23:05.275Z,13.73
2018-05-12T21:25:32.753Z,12.93
2018-05-12T21:28:00.234Z,12.03
2018-05-12T21:30:27.713Z,12.57
2018-05-12T21:32:55.962Z,12.53
2018-05-12T21:35:23.522Z,12.20
2018-05-12T21:37:51.122Z,12.77
2018-05-12T21:40:18.548Z,13.20
2018-05-12T21:42:46.824Z,13.47
2018-05-12T21:45:15.070Z,13.23
2018-05-12T21:47:42.548Z,11.00
2018-05-12T21:50:10.112Z,12.80
2018-05-12T21:52:37.587Z,13.07
2018-05-12T21:55:05.894Z,12.33
2018-05-12T21:57:33.394Z,12.90
2018-05-12T22:00:00.868Z,11.87
2018-05-12T22:02:28.338Z,12.70
2018-05-12T22:04:56.583Z,12.27
2018-05-12T22:07:24.047Z,12.93
2018-05-12T22:09:51.537Z,11.73
2018-05-12T22:12:19.002Z,13.40
2018-05-12T22:14:46.468Z,12.63
2018-05-12T22:17:13.966Z,12.50
2018-05-12T22:19:41.587Z,12.33
2018-05-12T22:22:09.054Z,12.50
2018-05-12T22:24:36.546Z,13.90
2018-05-12T22:27:04.042Z,13.57
2018-05-12T22:29:31.511Z,13.60
2018-05-12T22:31:58.980Z,12.83
2018-05-12T22:34:26.444Z,12.10
2018-05-12T22:36:53.900Z,11.50
2018-05-12T22:39:21.386Z,12.63
2018-05-12T22:41:48.941Z,11.97
2018-05-12T22:44:17.220Z,11.53
2018-05-12T22:46:44.685Z,11.53
2018-05-12T22:49:12.171Z,11.37
2018-05-12T22:51:39.632Z,11.50
2018-05-12T22:54:07.100Z,11.40
2018-05-12T22:56:34.563Z,11.87
2018-05-12T22:59:02.039Z,11.40
2018-05-12T23:01:29.511Z,12.80
2018-05-12T23:03:56.980Z,11.60
2018-05-12T23:06:24.438Z,11.20
2018-05-12T23:08:51.906Z,10.37
2018-05-12T23:11:20.135Z,11.20
2018-05-12T23:13:47.602Z,11.50
2018-05-12T23:16:15.084Z,11.73
2018-05-12T23:18:42.587Z,12.60
2018-05-12T23:21:10.073Z,12.60
2018-05-12T23:23:37.561Z,11.70
2018-05-12T23:26:05.039Z,10.83
2018-05-12T23:28:33.291Z,10.80
2018-05-12T23:31:00.772Z,10.23
2018-05-12T23:33:28.244Z,10.40
2018-05-12T23:35:55.731Z,11.47
2018-05-12T23:38:23.196Z,10.40
2018-05-12T23:40:50.703Z,11.07
2018-05-12T23:43:18.171Z,10.70
2018-05-12T23:45:45.640Z,11.73
2018-05-12T23:48:13.099Z,11.40
2018-05-12T23:50:40.585Z,10.83
2018-05-12T23:53:08.158Z,11.70
2018-05-12T23:55:35.639Z,10.97
2018-05-12T23:58:03.871Z,11.77
